Ruo'Ergai, China
Current Conditions -  °F | °C
As of 10:00 PM on Saturday 20 Dec 2014 (Local Time) from ZLLL Reporting Station
Clear Clear  
Wind Chill:   Ceiling: Unl
Heat Index:   Visibility: 6mi
Dew Point:   Wind: 4mph
Humidity: 67%   Direction: 220°SW
Pressure: 30.5"   Gusts: NA
Location:  33.58°N, 102.97°E
Report Text: ZLLL 201400Z 22002MPS 190V260 CAVOK M13/M18 Q1033 NOSIG
Loading
Personal Weather Stations






























Interactive Weather Map New forecast layout! Learn more

10-Day Weather Forecast

Advertisements
Track Severe Weather on mobile